Wilsonville, Alabama
Current Conditions -  °F | °C
As of 7:55 PM on Saturday 20 Dec 2014 (Local Time) from KSCD Reporting Station
Overcast Overcast  
Wind Chill: 46°   Ceiling: 3700
Heat Index: 46°   Visibility: 10mi
Dew Point: 43°   Wind: 0mph
Humidity: 88%   Direction: NA
Pressure: 30.2"   Gusts: NA
Location:  33.23°N, 86.48°W
Report Text: KSCD 210155Z AUTO 00000KT 10SM OVC037 08/06 A3020 RMK AO2 T00800061
Loading
Personal Weather Stations






























Interactive Weather Map New forecast layout! Learn more

10-Day Weather Forecast

Advertisements
Track Severe Weather on mobile